Time;durP1;ratioP1;P1;durP2;ratioP2;P2;SDS_P1;SDS_P2;PMS_P1;PMS_P2;Temp;Humidity;BMP_temperature;BMP_pressure;BME280_temperature;BME280_humidity;BME280_pressure;Samples;Min_cycle;Max_cycle;Signal;HPM_P1;HPM_P2
2021/10/12 00:00:07;;;;;;;74.97;40.13;;;;;;;;;;4961026;28;20120;-84
2021/10/12 00:02:33;;;;;;;74.78;38.95;;;;;;;;;;4961860;28;20026;-84
2021/10/12 00:04:59;;;;;;;71.00;36.80;;;;;;;;;;4962595;28;20069;-85
2021/10/12 00:07:25;;;;;;;74.85;38.28;;;;;;;;;;4976310;29;20083;-84
2021/10/12 00:09:51;;;;;;;71.80;36.53;;;;;;;;;;4951178;29;20107;-84
2021/10/12 00:12:18;;;;;;;72.63;38.35;;;;;;;;;;4913992;29;20039;-85
2021/10/12 00:14:44;;;;;;;89.90;42.08;;;;;;;;;;4948209;29;20047;-84
2021/10/12 00:17:10;;;;;;;78.25;38.92;;;;;;;;;;4947329;29;20163;-84
2021/10/12 00:19:37;;;;;;;79.20;39.65;;;;;;;;;;4919627;29;20048;-84
2021/10/12 00:22:04;;;;;;;79.82;39.38;;;;;;;;;;4929429;29;20047;-84
2021/10/12 00:24:29;;;;;;;78.95;38.85;;;;;;;;;;4929032;29;20032;-84
2021/10/12 00:26:55;;;;;;;71.45;36.15;;;;;;;;;;4917782;29;20122;-84
2021/10/12 00:29:21;;;;;;;78.68;38.13;;;;;;;;;;4937067;29;20106;-84
2021/10/12 00:31:47;;;;;;;77.65;38.72;;;;;;;;;;4944464;29;20118;-84
2021/10/12 00:34:13;;;;;;;82.43;37.78;;;;;;;;;;4930956;29;20134;-84
2021/10/12 00:36:40;;;;;;;92.07;42.38;;;;;;;;;;4931600;29;20034;-84
2021/10/12 00:39:06;;;;;;;82.63;41.10;;;;;;;;;;4945453;29;20023;-84
2021/10/12 00:41:32;;;;;;;81.75;41.30;;;;;;;;;;4946497;29;20043;-84
2021/10/12 00:43:58;;;;;;;92.70;44.03;;;;;;;;;;4947114;29;20070;-84
2021/10/12 00:46:23;;;;;;;91.15;44.40;;;;;;;;;;4947588;29;20040;-84
2021/10/12 00:48:49;;;;;;;89.40;44.55;;;;;;;;;;4940477;29;20046;-84
2021/10/12 00:51:15;;;;;;;99.32;45.85;;;;;;;;;;4930839;29;20031;-84
2021/10/12 00:53:41;;;;;;;94.55;45.65;;;;;;;;;;4946826;29;20035;-84
2021/10/12 00:56:08;;;;;;;104.72;46.95;;;;;;;;;;4958747;29;20062;-84
2021/10/12 00:58:35;;;;;;;103.85;46.90;;;;;;;;;;4939860;29;20031;-83
2021/10/12 01:01:01;;;;;;;91.50;43.70;;;;;;;;;;4946194;29;20531;-84
2021/10/12 01:03:27;;;;;;;93.43;45.47;;;;;;;;;;4945568;29;20039;-84
2021/10/12 01:05:53;;;;;;;102.38;48.00;;;;;;;;;;4947202;29;20036;-84
2021/10/12 01:08:19;;;;;;;97.55;47.20;;;;;;;;;;4930936;29;20032;-84
2021/10/12 01:10:45;;;;;;;101.20;45.83;;;;;;;;;;4939977;29;20031;-84
2021/10/12 01:13:11;;;;;;;88.47;42.80;;;;;;;;;;4946176;29;20091;-85
2021/10/12 01:15:37;;;;;;;87.20;41.38;;;;;;;;;;4964082;29;20023;-84
2021/10/12 01:18:10;;;;;;;80.25;41.25;;;;;;;;;;4943883;29;20043;-84
2021/10/12 01:20:37;;;;;;;90.00;43.72;;;;;;;;;;4946829;29;20027;-84
2021/10/12 01:23:03;;;;;;;87.10;40.72;;;;;;;;;;4948450;29;20038;-84
2021/10/12 01:25:29;;;;;;;88.28;42.97;;;;;;;;;;4966868;29;20480;-84
2021/10/12 01:27:55;;;;;;;93.03;45.05;;;;;;;;;;4931879;29;20051;-84
2021/10/12 01:30:21;;;;;;;90.43;44.17;;;;;;;;;;4950616;29;20031;-84
2021/10/12 01:32:47;;;;;;;92.95;44.47;;;;;;;;;;4953395;29;20035;-84
2021/10/12 01:35:14;;;;;;;90.22;42.05;;;;;;;;;;4967658;29;20043;-84
2021/10/12 01:37:40;;;;;;;91.30;44.00;;;;;;;;;;4949242;29;20030;-84
2021/10/12 01:40:07;;;;;;;93.07;45.03;;;;;;;;;;4949169;29;20031;-84
2021/10/12 01:42:34;;;;;;;99.00;46.15;;;;;;;;;;4963714;29;20031;-84
2021/10/12 01:45:01;;;;;;;85.30;43.10;;;;;;;;;;4915040;29;20126;-84
2021/10/12 01:47:29;;;;;;;88.32;45.45;;;;;;;;;;4928245;29;20126;-84
2021/10/12 01:49:56;;;;;;;97.70;47.00;;;;;;;;;;4955009;29;20030;-84
2021/10/12 01:52:22;;;;;;;87.38;43.95;;;;;;;;;;4963802;29;20106;-84
2021/10/12 01:54:48;;;;;;;92.68;45.10;;;;;;;;;;4932815;29;20058;-84
2021/10/12 01:57:14;;;;;;;91.28;45.20;;;;;;;;;;4926889;29;20067;-84
2021/10/12 01:59:40;;;;;;;90.47;44.88;;;;;;;;;;4926362;29;20028;-84
2021/10/12 02:02:05;;;;;;;81.20;41.75;;;4.10;99.90;;;;;;4912599;29;20123;-84
2021/10/12 02:04:32;;;;;;;86.65;44.58;;;9.30;99.90;;;;;;4927352;29;20027;-84
2021/10/12 02:06:59;;;;;;;86.43;44.53;;;8.60;99.90;;;;;;4927504;29;20043;-84
2021/10/12 02:09:25;;;;;;;85.85;43.17;;;8.60;99.90;;;;;;4923438;29;20035;-84
2021/10/12 02:11:51;;;;;;;93.15;43.00;;;9.30;99.90;;;;;;4930198;29;20062;-84
2021/10/12 02:14:17;;;;;;;86.20;41.25;;;9.00;99.90;;;;;;4930588;29;20035;-84
2021/10/12 02:16:42;;;;;;;99.57;45.42;;;10.40;99.90;;;;;;4943757;29;20045;-83
2021/10/12 02:19:08;;;;;;;84.55;44.47;;;8.70;99.90;;;;;;4927537;29;20244;-84
2021/10/12 02:21:34;;;;;;;95.18;46.65;;;10.20;99.90;;;;;;4910746;29;20039;-84
2021/10/12 02:23:59;;;;;;;83.63;43.03;;;9.30;99.90;;;;;;4927515;29;20034;-84
2021/10/12 02:26:25;;;;;;;88.88;44.58;;;10.90;99.90;;;;;;4927992;29;20028;-84
2021/10/12 02:28:51;;;;;;;94.38;45.17;;;8.70;99.90;;;;;;4926984;29;20038;-84
2021/10/12 02:31:17;;;;;;;87.88;43.20;;;9.90;99.90;;;;;;4927704;29;20038;-83
2021/10/12 02:33:42;;;;;;;89.05;43.28;;;8.80;99.90;;;;;;4926090;29;20063;-84
2021/10/12 02:36:08;;;;;;;96.45;45.25;;;8.80;99.90;;;;;;4912083;29;20092;-84
2021/10/12 02:38:34;;;;;;;95.28;46.28;;;8.80;99.90;;;;;;4927203;29;20386;-84
2021/10/12 02:41:00;;;;;;;88.90;44.63;;;10.80;99.90;;;;;;4925363;29;20441;-84
2021/10/12 02:43:25;;;;;;;83.60;44.15;;;10.90;99.90;;;;;;4945890;29;20015;-84
2021/10/12 02:45:51;;;;;;;89.95;45.42;;;8.80;99.90;;;;;;4945349;29;20515;-84
2021/10/12 02:48:17;;;;;;;87.50;45.78;;;9.60;99.90;;;;;;4959498;29;20041;-84
2021/10/12 02:50:43;;;;;;;88.22;45.40;;;9.30;99.90;;;;;;4954451;29;20035;-84
2021/10/12 02:53:10;;;;;;;86.82;43.72;;;11.00;99.90;;;;;;4943790;29;20039;-84
2021/10/12 02:55:35;;;;;;;88.13;45.78;;;8.80;99.90;;;;;;4926710;29;20381;-84
2021/10/12 02:58:01;;;;;;;82.95;43.00;;;8.90;99.90;;;;;;4910816;29;20047;-84
2021/10/12 03:00:27;;;;;;;81.80;41.05;;;9.50;99.90;;;;;;4960833;29;20042;-84
2021/10/12 03:02:52;;;;;;;79.70;42.17;;;9.10;99.90;;;;;;4962120;29;20031;-84
2021/10/12 03:05:18;;;;;;;80.68;42.97;;;9.80;99.90;;;;;;4958848;29;20492;-84
2021/10/12 03:07:44;;;;;;;99.03;46.20;;;8.80;99.90;;;;;;4957847;29;20039;-84
2021/10/12 03:10:09;;;;;;;94.10;46.00;;;9.10;99.90;;;;;;4925868;29;20377;-84
2021/10/12 03:12:35;;;;;;;93.20;47.58;;;8.60;99.90;;;;;;4926203;29;20039;-83
2021/10/12 03:15:02;;;;;;;92.22;45.97;;;8.60;99.90;;;;;;4942834;29;20031;-83
2021/10/12 03:17:28;;;;;;;91.20;43.38;;;10.30;99.90;;;;;;4929573;29;20064;-84
2021/10/12 03:19:53;;;;;;;93.63;43.00;;;8.80;99.90;;;;;;4960327;29;21613;-84
2021/10/12 03:22:19;;;;;;;92.55;45.17;;;9.30;99.90;;;;;;4910704;29;20031;-84
2021/10/12 03:24:45;;;;;;;91.15;44.85;;;10.50;99.90;;;;;;4926589;29;20032;-84
2021/10/12 03:27:12;;;;;;;97.07;44.17;;;10.30;99.90;;;;;;4926433;29;20493;-84
2021/10/12 03:29:38;;;;;;;83.05;43.60;;;8.90;99.90;;;;;;4927078;29;20106;-84
2021/10/12 03:32:04;;;;;;;89.97;44.63;;;11.00;99.90;;;;;;4926785;29;20031;-84
2021/10/12 03:34:31;;;;;;;89.28;44.58;;;9.00;99.90;;;;;;4943356;29;20436;-84
2021/10/12 03:36:58;;;;;;;91.47;43.78;;;9.70;99.90;;;;;;4926692;29;20115;-84
2021/10/12 03:39:25;;;;;;;91.90;46.00;;;9.00;99.90;;;;;;4926551;29;20028;-84
2021/10/12 03:41:51;;;;;;;87.68;45.15;;;10.60;99.90;;;;;;4926279;29;20028;-84
2021/10/12 03:44:18;;;;;;;85.10;45.90;;;9.00;99.90;;;;;;4920318;29;20111;-84
2021/10/12 03:46:43;;;;;;;79.22;41.42;;;10.10;99.90;;;;;;4945150;29;20031;-84
2021/10/12 03:49:09;;;;;;;91.78;44.42;;;10.10;99.90;;;;;;4965456;29;20030;-84
2021/10/12 03:51:35;;;;;;;82.32;42.35;;;10.30;99.90;;;;;;4929953;28;20051;-84
2021/10/12 03:54:01;;;;;;;84.07;42.63;;;11.20;99.90;;;;;;4928890;29;20126;-84
2021/10/12 03:56:27;;;;;;;82.38;42.90;;;;;;;;;;4913883;29;20421;-84
2021/10/12 03:58:55;;;;;;;84.78;42.30;;;;;;;;;;4945437;29;20032;-84
2021/10/12 04:01:22;;;;;;;81.50;42.70;;;;;;;;;;4955043;29;20023;-85
2021/10/12 04:03:48;;;;;;;84.55;43.33;;;;;;;;;;4941800;29;20027;-84
2021/10/12 04:06:15;;;;;;;84.97;42.58;;;;;;;;;;4928651;29;20039;-85
2021/10/12 04:08:41;;;;;;;78.13;41.85;;;;;;;;;;4945879;29;20027;-85
2021/10/12 04:11:07;;;;;;;79.00;41.45;;;9.20;99.90;;;;;;4964030;29;20027;-85
2021/10/12 04:13:33;;;;;;;81.22;42.53;;;10.70;99.90;;;;;;4942847;29;20020;-84
2021/10/12 04:15:58;;;;;;;78.43;42.05;;;8.70;99.90;;;;;;4928712;29;20031;-85
2021/10/12 04:18:24;;;;;;;82.00;43.58;;;10.30;99.90;;;;;;4927773;29;20063;-84
2021/10/12 04:20:49;;;;;;;83.07;42.55;;;10.50;99.90;;;;;;4926608;29;20099;-85
2021/10/12 04:23:15;;;;;;;77.47;39.92;;;9.00;99.90;;;;;;4933334;29;20062;-85
2021/10/12 04:25:41;;;;;;;82.70;40.63;;;11.10;99.90;;;;;;4946601;29;20033;-85
2021/10/12 04:28:13;;;;;;;82.90;41.53;;;9.20;99.90;;;;;;4963599;29;20032;-85
2021/10/12 04:30:44;;;;;;;78.70;40.67;;;10.70;99.90;;;;;;4946353;29;20389;-85
2021/10/12 04:33:11;;;;;;;77.22;40.05;;;9.00;99.90;;;;;;4929355;29;20035;-84
2021/10/12 04:35:36;;;;;;;86.25;43.30;;;8.90;99.90;;;;;;4929140;29;20024;-84
2021/10/12 04:38:03;;;;;;;90.25;44.80;;;9.20;99.90;;;;;;4912250;29;20046;-83
2021/10/12 04:40:32;;;;;;;83.97;43.00;;;9.30;99.90;;;;;;4947239;29;20039;-82
2021/10/12 04:43:00;;;;;;;86.60;43.45;;;10.20;99.90;;;;;;4960248;29;20433;-83
2021/10/12 04:45:26;;;;;;;84.50;41.20;;;9.30;99.90;;;;;;4926993;29;20028;-83
2021/10/12 04:47:53;;;;;;;84.10;42.85;;;9.00;99.90;;;;;;4926597;29;20549;-83
2021/10/12 04:50:19;;;;;;;90.45;42.22;;;9.50;99.90;;;;;;4945242;29;20066;-83
2021/10/12 04:52:45;;;;;;;88.72;41.65;;;9.10;99.90;;;;;;4930937;29;20059;-83
2021/10/12 04:55:11;;;;;;;79.43;41.22;;;11.10;99.90;;;;;;4914322;29;20032;-83
2021/10/12 04:57:37;;;;;;;83.32;40.83;;;9.80;99.90;;;;;;4936129;29;20055;-83
2021/10/12 05:00:05;;;;;;;87.82;43.92;;;9.00;99.90;;;;;;4940309;29;20055;-84
2021/10/12 05:02:31;;;;;;;87.82;43.42;;;9.00;99.90;;;;;;4921136;29;20109;-83
2021/10/12 05:04:57;;;;;;;84.88;42.22;;;9.90;99.90;;;;;;4908833;29;20028;-84
2021/10/12 05:07:22;;;;;;;81.95;41.28;;;9.00;99.90;;;;;;4926312;29;20043;-83
2021/10/12 05:09:48;;;;;;;89.60;43.65;;;9.20;99.90;;;;;;4928824;29;20036;-84
2021/10/12 05:12:14;;;;;;;98.05;45.58;;;;;;;;;;4914482;29;20135;-85
2021/10/12 05:14:40;;;;;;;92.88;45.47;;;;;;;;;;4947787;29;20036;-84
2021/10/12 05:17:14;;;;;;;97.38;45.13;;;;;;;;;;4947525;29;20046;-83
2021/10/12 05:19:40;;;;;;;96.97;49.35;;;;;;;;;;4926292;29;20103;-83
2021/10/12 05:22:05;;;;;;;113.18;49.67;;;9.10;99.90;;;;;;4931377;29;20051;-83
2021/10/12 05:24:31;;;;;;;106.30;50.50;;;8.70;99.90;;;;;;4916267;29;20059;-83
2021/10/12 05:26:57;;;;;;;119.55;51.83;;;11.30;99.90;;;;;;4946708;29;20046;-84
2021/10/12 05:29:23;;;;;;;111.95;53.28;;;8.80;99.90;;;;;;4905999;29;20036;-83
2021/10/12 05:31:48;;;;;;;122.55;52.65;;;9.20;99.90;;;;;;4947896;29;20032;-83
2021/10/12 05:34:14;;;;;;;113.93;51.70;;;9.00;99.90;;;;;;4930469;29;20063;-83
2021/10/12 05:36:41;;;;;;;116.30;53.47;;;8.60;99.90;;;;;;4947845;29;20027;-84
2021/10/12 05:39:06;;;;;;;113.65;51.40;;;10.80;99.90;;;;;;4930728;29;20513;-84
2021/10/12 05:41:32;;;;;;;113.57;53.83;;;8.90;99.90;;;;;;4915076;29;20091;-84
2021/10/12 05:43:58;;;;;;;119.20;53.65;;;;;;;;;;4930100;29;20095;-83
2021/10/12 05:46:24;;;;;;;119.10;54.33;;;;;;;;;;4940881;29;20504;-84
2021/10/12 05:48:50;;;;;;;112.82;51.38;;;;;;;;;;4947513;29;20117;-83
2021/10/12 05:51:19;;;;;;;114.75;52.40;;;;;;;;;;4932693;29;20032;-83
2021/10/12 05:53:51;;;;;;;118.80;51.25;;;;;;;;;;4929254;29;20091;-84
2021/10/12 05:56:23;;;;;;;105.18;49.70;;;;;;;;;;4943756;29;20083;-84
2021/10/12 05:58:49;;;;;;;118.07;53.50;;;;;;;;;;4960378;29;20043;-83
2021/10/12 06:01:16;;;;;;;108.72;51.60;;;;;;;;;;4946969;29;20027;-84
2021/10/12 06:03:42;;;;;;;104.82;50.05;;;;;;;;;;4941301;29;20031;-83
2021/10/12 06:06:08;;;;;;;109.30;49.72;;;;;;;;;;4927488;29;20031;-83
2021/10/12 06:08:35;;;;;;;110.50;49.78;;;;;;;;;;4931126;29;20030;-83
2021/10/12 06:11:02;;;;;;;101.00;48.97;;;;;;;;;;4964349;29;20384;-84
2021/10/12 06:13:28;;;;;;;101.38;47.78;;;;;;;;;;4946756;29;20023;-83
2021/10/12 06:15:55;;;;;;;96.63;46.75;;;;;;;;;;4964091;28;20023;-84
2021/10/12 06:18:21;;;;;;;101.68;47.40;;;;;;;;;;4945883;29;20476;-84
2021/10/12 06:20:47;;;;;;;97.53;45.42;;;;;;;;;;4948483;29;20091;-83
2021/10/12 06:23:13;;;;;;;88.57;44.45;;;;;;;;;;4927705;29;20031;-84
2021/10/12 06:25:39;;;;;;;104.57;44.78;;;;;;;;;;4928338;29;20028;-84
2021/10/12 06:28:06;;;;;;;102.65;46.97;;;;;;;;;;4925715;29;20024;-84
2021/10/12 06:30:32;;;;;;;93.15;45.28;;;;;;;;;;4941610;29;20404;-84
2021/10/12 06:32:58;;;;;;;90.55;44.83;;;;;;;;;;4924207;29;20028;-83
2021/10/12 06:35:26;;;;;;;93.82;44.67;;;;;;;;;;4924808;29;20063;-83
2021/10/12 06:37:52;;;;;;;86.00;43.15;;;;;;;;;;4924785;29;20032;-83
2021/10/12 06:40:18;;;;;;;86.13;44.35;;;;;;;;;;4942550;29;20103;-83
2021/10/12 06:42:44;;;;;;;96.35;45.80;;;;;;;;;;4932079;29;20032;-84
2021/10/12 06:45:11;;;;;;;90.63;45.53;;;;;;;;;;4937099;29;20042;-84
2021/10/12 06:47:38;;;;;;;93.72;44.00;;;;;;;;;;4937721;29;20037;-83
2021/10/12 06:50:04;;;;;;;88.10;41.75;;;;;;;;;;4939218;29;20103;-83
2021/10/12 06:52:30;;;;;;;86.57;42.47;;;;;;;;;;4919823;29;20047;-84
2021/10/12 06:54:56;;;;;;;93.05;42.15;;;;;;;;;;4941240;28;20063;-85
2021/10/12 06:57:22;;;;;;;88.25;41.63;;;;;;;;;;4950474;29;20111;-84
2021/10/12 06:59:48;;;;;;;86.07;43.75;;;;;;;;;;4930197;29;20032;-84
2021/10/12 07:02:14;;;;;;;83.68;40.17;;;;;;;;;;4948061;29;20040;-84
2021/10/12 07:04:40;;;;;;;86.10;42.33;;;;;;;;;;4937193;29;20050;-84
2021/10/12 07:07:06;;;;;;;85.88;42.88;;;;;;;;;;4930662;29;20024;-85
2021/10/12 07:09:32;;;;;;;86.90;42.30;;;;;;;;;;4943360;29;20051;-84
2021/10/12 07:11:58;;;;;;;76.38;41.08;;;;;;;;;;4962764;29;20465;-84
2021/10/12 07:14:24;;;;;;;83.35;41.15;;;;;;;;;;4934979;29;20069;-84
2021/10/12 07:16:50;;;;;;;79.38;38.53;;;;;;;;;;4926469;29;20036;-85
2021/10/12 07:19:18;;;;;;;73.95;37.20;;;;;;;;;;4976720;23;20113;-79
2021/10/12 07:21:45;;;;;;;74.95;39.47;;;;;;;;;;4979038;28;20085;-79
2021/10/12 07:24:12;;;;;;;73.40;36.00;;;;;;;;;;4962523;28;20027;-79
2021/10/12 07:26:38;;;;;;;72.47;36.00;;;;;;;;;;4962014;28;20039;-82
2021/10/12 07:29:04;;;;;;;63.90;33.70;;;;;;;;;;4981052;28;20025;-80
2021/10/12 07:31:30;;;;;;;58.10;32.35;;;;;;;;;;4986784;28;20037;-80
2021/10/12 07:33:56;;;;;;;60.58;31.58;;;;;;;;;;4991444;28;20031;-80
2021/10/12 07:36:22;;;;;;;53.28;30.23;;;;;;;;;;4980320;28;20073;-80
2021/10/12 07:38:47;;;;;;;47.30;27.50;;;;;;;;;;4979380;28;20026;-79
2021/10/12 07:41:14;;;;;;;54.13;27.77;;;;;;;;;;4978331;28;20033;-79
2021/10/12 07:43:40;;;;;;;49.17;27.33;;;;;;;;;;4984024;28;20042;-79
2021/10/12 07:46:06;;;;;;;51.30;26.70;;;;;;;;;;4981126;28;20155;-80
2021/10/12 07:48:32;;;;;;;44.08;25.52;;;;;;;;;;5000180;28;20027;-79
2021/10/12 07:50:58;;;;;;;44.17;26.52;;;;;;;;;;5002558;28;20026;-80
2021/10/12 07:53:24;;;;;;;41.55;24.60;;;;;;;;;;4987913;28;20026;-80
2021/10/12 07:55:56;;;;;;;38.25;23.13;;;;;;;;;;4970138;28;20386;-80
2021/10/12 07:58:22;;;;;;;46.10;24.60;;;;;;;;;;4983325;28;20069;-79
2021/10/12 08:00:48;;;;;;;37.72;24.45;;;;;;;;;;4974557;28;20079;-80
2021/10/12 08:03:16;;;;;;;39.20;23.75;;;;;;;;;;4958327;28;20058;-79
2021/10/12 08:05:42;;;;;;;37.47;21.85;;;;;;;;;;4974981;28;20026;-79
2021/10/12 08:08:08;;;;;;;37.08;23.48;;;;;;;;;;4975153;28;20031;-79
2021/10/12 08:10:35;;;;;;;36.25;21.83;;;;;;;;;;4966509;28;20453;-80
2021/10/12 08:13:05;;;;;;;35.70;21.83;;;;;;;;;;4994028;28;20037;-79
2021/10/12 08:15:31;;;;;;;35.88;20.50;;;;;;;;;;4958005;28;20110;-78
2021/10/12 08:17:57;;;;;;;30.08;19.45;;;;;;;;;;4986291;28;20113;-79
2021/10/12 08:20:23;;;;;;;32.88;19.55;;;;;;;;;;4997451;28;20042;-79
2021/10/12 08:22:49;;;;;;;38.05;19.65;;;;;;;;;;4998767;28;20515;-79
2021/10/12 08:25:15;;;;;;;33.42;18.48;;;;;;;;;;4999111;28;20054;-80
2021/10/12 08:27:42;;;;;;;33.67;19.98;;;;;;;;;;4986582;28;20041;-80
2021/10/12 08:30:11;;;;;;;36.10;20.15;;;;;;;;;;4998538;28;20088;-80
2021/10/12 08:32:38;;;;;;;31.73;18.70;;;;;;;;;;4999841;28;20041;-80
2021/10/12 08:35:07;;;;;;;30.60;17.23;;;;;;;;;;4997639;28;20030;-79
2021/10/12 08:37:33;;;;;;;33.72;18.27;;;;;;;;;;4987083;28;20038;-80
2021/10/12 08:40:00;;;;;;;25.92;17.35;;;;;;;;;;4978603;28;20106;-79
2021/10/12 08:42:27;;;;;;;30.25;18.25;;;;;;;;;;4994996;28;20491;-80
2021/10/12 08:44:56;;;;;;;30.42;18.63;;;;;;;;;;4996058;28;20018;-80
2021/10/12 08:47:23;;;;;;;31.65;18.25;;;;;;;;;;4995723;28;20026;-80
2021/10/12 08:49:50;;;;;;;27.88;17.85;;;;;;;;;;4994595;28;20454;-79
2021/10/12 08:52:16;;;;;;;26.80;15.88;;;;;;;;;;4987773;28;20039;-79
2021/10/12 08:54:42;;;;;;;30.30;16.35;;;;;;;;;;4960509;28;20027;-79
2021/10/12 08:57:08;;;;;;;23.48;15.70;;;;;;;;;;4977629;28;20030;-80
2021/10/12 08:59:34;;;;;;;21.60;14.65;;;;;;;;;;4989343;28;20507;-79
2021/10/12 09:02:06;;;;;;;24.90;15.15;;;;;;;;;;4995527;28;20041;-80
2021/10/12 09:04:38;;;;;;;25.60;15.48;;;;;;;;;;4971308;28;20058;-79
2021/10/12 09:07:04;;;;;;;22.85;14.98;;;;;;;;;;4979974;28;20085;-80
2021/10/12 09:09:34;;;;;;;26.48;15.60;;;;;;;;;;4982210;28;20096;-81
2021/10/12 09:12:01;;;;;;;27.50;15.38;;;;;;;;;;4965720;28;20380;-79
2021/10/12 09:14:27;;;;;;;26.17;14.95;;;;;;;;;;4989388;28;20081;-79
2021/10/12 09:17:02;;;;;;;28.92;15.20;;;;;;;;;;4998788;28;20040;-79
2021/10/12 09:19:31;;;;;;;25.27;15.93;;;;;;;;;;4997833;28;20026;-79
2021/10/12 09:21:58;;;;;;;27.20;16.08;;;;;;;;;;5008051;28;20030;-79
2021/10/12 09:24:24;;;;;;;22.98;15.48;;;;;;;;;;5006193;28;20027;-79
2021/10/12 09:27:00;;;;;;;28.15;16.35;;;;;;;;;;4979211;28;20034;-79
2021/10/12 09:29:31;;;;;;;23.52;14.43;;;;;;;;;;4995612;28;20027;-79
2021/10/12 09:31:58;;;;;;;22.48;14.30;;;;;;;;;;4987678;28;20030;-79
2021/10/12 09:34:24;;;;;;;25.08;14.88;;;;;;;;;;4998327;28;20105;-79
2021/10/12 09:36:50;;;;;;;25.35;13.93;;;;;;;;;;5007186;28;20046;-79
2021/10/12 09:39:39;;;;;;;22.85;13.23;;;;;;;;;;5004242;28;20050;-81
2021/10/12 09:42:05;;;;;;;24.48;13.20;;;;;;;;;;4975407;28;20035;-80
2021/10/12 09:44:31;;;;;;;20.65;13.07;;;;;;;;;;4990075;28;20038;-80
2021/10/12 09:47:05;;;;;;;20.50;13.20;;;;;;;;;;4996725;28;20096;-80
2021/10/12 09:49:31;;;;;;;22.13;13.73;;;;;;;;;;4996899;28;20034;-79
2021/10/12 09:52:17;;;;;;;25.73;14.57;;;;;;;;;;4997804;28;20022;-80
2021/10/12 09:54:55;;;;;;;21.45;12.70;;;;;;;;;;4981373;28;20081;-79
2021/10/12 09:57:22;;;;;;;21.85;12.50;;;;;;;;;;4985538;28;20065;-79
2021/10/12 09:59:49;;;;;;;22.55;13.00;;;;;;;;;;4967169;28;20039;-79
2021/10/12 10:02:17;;;;;;;21.55;12.45;;;;;;;;;;4982151;28;20023;-79
2021/10/12 10:04:43;;;;;;;19.63;13.02;;;;;;;;;;4995182;28;20041;-79
2021/10/12 10:07:24;;;;;;;20.02;11.82;;;;;;;;;;4983879;28;20038;-82
2021/10/12 10:09:51;;;;;;;18.40;11.05;;;;;;;;;;4982747;28;20042;-80
2021/10/12 10:12:18;;;;;;;18.85;10.52;;;;;;;;;;4983427;28;20038;-80
2021/10/12 10:14:44;;;;;;;16.77;10.27;;;;;;;;;;5000317;28;20031;-80
2021/10/12 10:17:10;;;;;;;16.73;9.93;;;;;;;;;;4975399;28;20039;-80
2021/10/12 10:19:37;;;;;;;14.52;9.98;;;;;;;;;;4985422;28;20038;-81
2021/10/12 10:22:04;;;;;;;17.05;10.30;;;;;;;;;;4987070;28;20023;-79
2021/10/12 10:24:49;;;;;;;18.70;9.65;;;;;;;;;;5000942;28;20534;-82
2021/10/12 10:27:31;;;;;;;16.48;10.10;;;;;;;;;;5000819;28;20030;-80
2021/10/12 10:30:20;;;;;;;13.98;8.68;;;;;;;;;;4984568;28;20048;-80
2021/10/12 10:32:47;;;;;;;15.65;9.10;;;;;;;;;;4965034;28;20030;-80
2021/10/12 10:35:14;;;;;;;15.35;9.40;;;;;;;;;;4998867;28;20035;-80
2021/10/12 10:37:41;;;;;;;17.40;9.45;;;;;;;;;;4999288;28;20053;-80
2021/10/12 10:40:07;;;;;;;19.02;9.43;;;;;;;;;;4970175;28;20102;-80
2021/10/12 10:42:41;;;;;;;13.88;9.05;;;;;;;;;;5005791;28;20022;-79
2021/10/12 10:45:07;;;;;;;16.33;9.05;;;;;;;;;;5003840;28;20082;-80
2021/10/12 10:47:42;;;;;;;16.10;9.30;;;;;;;;;;4951596;29;20058;-80
2021/10/12 10:50:27;;;;;;;17.15;8.93;;;;;;;;;;4961953;29;20034;-80
2021/10/12 10:52:54;;;;;;;16.73;8.90;;;;;;;;;;4973102;28;20042;-80
2021/10/12 10:55:21;;;;;;;15.90;8.98;;;;;;;;;;4992934;28;20033;-80
2021/10/12 10:58:07;;;;;;;17.48;9.70;;;;;;;;;;4979996;28;20029;-80
2021/10/12 11:00:53;;;;;;;14.70;7.68;;;;;;;;;;4941860;29;20038;-80
2021/10/12 11:03:28;;;;;;;17.38;7.88;;;;;;;;;;4966182;28;20069;-80
2021/10/12 11:05:54;;;;;;;15.20;8.00;;;;;;;;;;4982460;28;20129;-80
2021/10/12 11:08:22;;;;;;;13.57;7.80;;;;;;;;;;4997740;28;20118;-79
2021/10/12 11:10:54;;;;;;;11.77;7.60;;;;;;;;;;4984104;28;20034;-79
2021/10/12 11:13:46;;;;;;;15.52;7.28;;;;;;;;;;4989082;28;20110;-79
2021/10/12 11:16:13;;;;;;;20.10;9.73;;;;;;;;;;4999446;28;20108;-80
2021/10/12 11:18:40;;;;;;;12.43;7.53;;;;;;;;;;4979936;28;20131;-80
2021/10/12 11:21:07;;;;;;;13.35;7.20;;;;;;;;;;4981554;28;20109;-81
2021/10/12 11:23:37;;;;;;;11.57;7.60;;;;;;;;;;4982144;28;20034;-79
2021/10/12 11:26:06;;;;;;;12.48;6.95;;;;;;;;;;4963543;28;20027;-80
2021/10/12 11:28:33;;;;;;;10.73;6.70;;;;;;;;;;4983217;28;20031;-80
2021/10/12 11:31:00;;;;;;;13.10;6.65;;;;;;;;;;4998766;28;20034;-80
2021/10/12 11:33:30;;;;;;;14.70;7.00;;;;;;;;;;4995797;28;20093;-81
2021/10/12 11:35:59;;;;;;;12.57;6.45;;;;;;;;;;4979752;28;20492;-82
2021/10/12 11:38:39;;;;;;;11.60;6.20;;;;;;;;;;4982748;28;20505;-80
2021/10/12 11:41:15;;;;;;;13.38;6.70;;;;;;;;;;4999827;28;20479;-81
2021/10/12 11:43:43;;;;;;;12.55;6.72;;;;;;;;;;4993529;28;20031;-80
2021/10/12 11:46:09;;;;;;;12.88;7.18;;;;;;;;;;4980144;28;20097;-80
2021/10/12 11:48:36;;;;;;;13.50;6.28;;;;;;;;;;4997997;28;20038;-81
2021/10/12 11:51:21;;;;;;;12.15;5.95;;;;;;;;;;4999222;28;20043;-81
2021/10/12 11:53:47;;;;;;;11.55;6.00;;;;;;;;;;4993187;28;20121;-81
2021/10/12 11:56:14;;;;;;;11.35;6.45;;;;;;;;;;5001797;28;20030;-81
2021/10/12 11:58:40;;;;;;;12.30;6.65;;;;;;;;;;5001585;28;20053;-80
2021/10/12 12:01:07;;;;;;;10.55;5.85;;;;;;;;;;5006554;28;20105;-82
2021/10/12 12:03:33;;;;;;;11.52;5.60;;;;;;;;;;5002791;28;20070;-81
2021/10/12 12:05:59;;;;;;;11.18;5.50;;;;;;;;;;5004068;28;20038;-81
2021/10/12 12:08:30;;;;;;;11.57;5.57;;;;;;;;;;4997255;28;20023;-82
2021/10/12 12:10:56;;;;;;;8.05;4.93;;;;;;;;;;4992277;28;20030;-81
2021/10/12 12:13:25;;;;;;;7.75;4.13;;;;;;;;;;4994552;28;20091;-81
2021/10/12 12:15:51;;;;;;;9.77;4.95;;;;;;;;;;4976840;28;20078;-81
2021/10/12 12:18:18;;;;;;;9.85;4.45;;;;;;;;;;4992965;28;20039;-81
2021/10/12 12:20:52;;;;;;;12.45;4.85;;;;;;;;;;5002975;28;20041;-81
2021/10/12 12:23:31;;;;;;;11.88;5.43;;;;;;;;;;5011113;28;20046;-82
2021/10/12 12:25:57;;;;;;;9.60;4.88;;;;;;;;;;5010205;28;20042;-81
2021/10/12 12:28:23;;;;;;;8.75;4.43;;;;;;;;;;4988991;28;20057;-81
2021/10/12 12:30:50;;;;;;;10.98;4.88;;;;;;;;;;5012840;28;20030;-81
2021/10/12 12:33:16;;;;;;;13.18;5.30;;;;;;;;;;4992408;28;20034;-81
2021/10/12 12:35:43;;;;;;;12.98;5.47;;;;;;;;;;4992789;28;20038;-82
2021/10/12 12:38:09;;;;;;;10.43;4.78;;;;;;;;;;4995306;28;20042;-81
2021/10/12 12:40:36;;;;;;;13.20;5.60;;;;;;;;;;5014254;28;20023;-81
2021/10/12 12:43:21;;;;;;;8.05;4.97;;;;;;;;;;5013360;28;20034;-81
2021/10/12 12:46:05;;;;;;;11.27;5.32;;;;;;;;;;4996186;28;20030;-81
2021/10/12 12:48:31;;;;;;;10.05;5.10;;;;;;;;;;5003001;28;20029;-81
2021/10/12 12:51:01;;;;;;;7.85;4.60;;;;;;;;;;5015256;28;20034;-80
2021/10/12 12:53:40;;;;;;;8.80;4.60;;;;;;;;;;5010002;28;20035;-81
2021/10/12 12:56:07;;;;;;;8.10;4.18;;;;;;;;;;4994333;28;20050;-81
2021/10/12 12:58:37;;;;;;;13.00;4.35;;;;;;;;;;4991443;28;20371;-80
2021/10/12 13:01:03;;;;;;;8.45;4.55;;;;;;;;;;4993610;28;20038;-80
2021/10/12 13:03:30;;;;;;;11.95;5.03;;;;;;;;;;4993709;28;20033;-80
2021/10/12 13:05:56;;;;;;;8.27;4.78;;;;;;;;;;4993835;28;20033;-80
2021/10/12 13:08:22;;;;;;;9.10;4.30;;;;;;;;;;5002408;28;20058;-80
2021/10/12 13:10:48;;;;;;;11.68;4.25;;;;;;;;;;5010794;28;20031;-80
2021/10/12 13:13:14;;;;;;;10.13;4.75;;;;;;;;;;5011278;28;20073;-80
2021/10/12 13:15:40;;;;;;;12.02;5.18;;;;;;;;;;5012146;28;20038;-80
2021/10/12 13:18:06;;;;;;;8.10;4.53;;;;;;;;;;4999609;28;20050;-80
2021/10/12 13:20:32;;;;;;;11.57;5.65;;;;;;;;;;4991542;23;20399;-83
2021/10/12 13:22:58;;;;;;;9.32;4.90;;;;;;;;;;4940767;29;20042;-85
2021/10/12 13:25:24;;;;;;;15.68;5.82;;;;;;;;;;4985904;28;20033;-85
2021/10/12 13:27:50;;;;;;;10.98;5.45;;;;;;;;;;4955577;29;20027;-83
2021/10/12 13:30:16;;;;;;;16.17;5.65;;;;;;;;;;4986334;28;20072;-86
2021/10/12 13:32:42;;;;;;;14.65;5.85;;;;;;;;;;4972658;28;20058;-85
2021/10/12 13:35:12;;;;;;;13.32;5.72;;;;;;;;;;4972093;28;20033;-84
2021/10/12 13:37:38;;;;;;;16.27;7.05;;;;;;;;;;4988776;28;20019;-85
2021/10/12 13:40:04;;;;;;;9.70;5.68;;;;;;;;;;4985380;28;20042;-84
2021/10/12 13:42:31;;;;;;;9.57;6.05;;;;;;;;;;4968963;28;20080;-85
2021/10/12 13:44:57;;;;;;;8.10;5.22;;;;;;;;;;4984528;28;20027;-84
2021/10/12 13:47:23;;;;;;;12.63;6.53;;;;;;;;;;4967324;28;20046;-85
2021/10/12 13:49:49;;;;;;;13.35;6.72;;;;;;;;;;4984918;28;20039;-85
2021/10/12 13:52:17;;;;;;;11.77;7.05;;;;;;;;;;4968602;28;20027;-85